Decatur Airport Decatur US
ICAO: KDEC
IATA: DEC
Category: Medium
Scheduled Services: Yes

Elevation: 682 ft
TransAlt. 18000 ft.

Airport Communications:
CHAMPAIGN APP/DEP:132.85
ATIS:126.35
CTAF:118.9
GND:121.75
ST LOUIS RDO:122.3
TWR:118.9
UNICOM:122.95

KDEC Zoom In..

If you have problems with the map follow the link
https://www.worldairports.se/pages/airport.php?
ICAO=KDEC

Runways:

(A) RW 06 length 8496 ft width 150 ft
ILS 110.90 / hdg 60

(B) RW 12 length 6799 ft width 150 ft
---- / hdg 120

(C) RW 18 length 5298 ft width 150 ft
---- / hdg 180

(D) RW 24 length 8496 ft width 150 ft
---- / hdg 240

(E) RW 30 length 6799 ft width 150 ft
---- / hdg 300

(F) RW 36 length 5298 ft width 150 ft
---- / hdg 360

Location; KDEC
Day. 06 / Time. 02.54 Zulu
* Altimeter: 29.98
* Temperature: 09° c. 48.2°f.
* Wind from: 180° Speed 10 kn.
Dewpoint: 02° c.
Visibility: 10 Statute Miles.
Clouds: Scattered 12000 ft.

KDEC 060254Z 18010KT 10SM SCT120 09/02 A2998 RMK AO2 SLP154 T00940017 58003


Wind From 180°
Speed 10 kn.

 
 
jpsmedia worldairports.se 2019   terms of use